sensor_id;sensor_type;location;lat;lon;timestamp;P1;durP1;ratioP1;P2;durP2;ratioP2
14817;SDS011;7500;57.698;11.986;2024-02-16T00:00:02;1.50;;;1.27;;
14817;SDS011;7500;57.698;11.986;2024-02-16T00:02:29;13.00;;;2.10;;
14817;SDS011;7500;57.698;11.986;2024-02-16T00:04:57;11.43;;;1.50;;
14817;SDS011;7500;57.698;11.986;2024-02-16T00:07:29;3.63;;;1.30;;
14817;SDS011;7500;57.698;11.986;2024-02-16T00:09:55;2.43;;;1.27;;
14817;SDS011;7500;57.698;11.986;2024-02-16T00:12:22;2.93;;;1.17;;
14817;SDS011;7500;57.698;11.986;2024-02-16T00:14:50;4.03;;;1.33;;
14817;SDS011;7500;57.698;11.986;2024-02-16T00:17:17;0.90;;;0.80;;
14817;SDS011;7500;57.698;11.986;2024-02-16T00:19:44;1.60;;;0.97;;
14817;SDS011;7500;57.698;11.986;2024-02-16T00:22:10;2.37;;;1.00;;
14817;SDS011;7500;57.698;11.986;2024-02-16T00:24:38;3.00;;;1.13;;
14817;SDS011;7500;57.698;11.986;2024-02-16T00:27:04;5.60;;;1.03;;
14817;SDS011;7500;57.698;11.986;2024-02-16T00:29:31;3.97;;;1.10;;
14817;SDS011;7500;57.698;11.986;2024-02-16T00:31:59;5.10;;;1.13;;
14817;SDS011;7500;57.698;11.986;2024-02-16T00:34:26;5.40;;;1.40;;
14817;SDS011;7500;57.698;11.986;2024-02-16T00:36:52;9.03;;;1.03;;
14817;SDS011;7500;57.698;11.986;2024-02-16T00:39:19;24.50;;;1.80;;
14817;SDS011;7500;57.698;11.986;2024-02-16T00:41:47;5.83;;;1.43;;
14817;SDS011;7500;57.698;11.986;2024-02-16T00:44:13;4.30;;;0.90;;
14817;SDS011;7500;57.698;11.986;2024-02-16T00:46:40;3.50;;;0.97;;
14817;SDS011;7500;57.698;11.986;2024-02-16T00:49:08;3.63;;;1.17;;
14817;SDS011;7500;57.698;11.986;2024-02-16T00:51:35;38.73;;;2.13;;
14817;SDS011;7500;57.698;11.986;2024-02-16T00:54:02;9.57;;;1.00;;
14817;SDS011;7500;57.698;11.986;2024-02-16T00:56:28;8.00;;;1.20;;
14817;SDS011;7500;57.698;11.986;2024-02-16T00:58:55;16.43;;;1.40;;
14817;SDS011;7500;57.698;11.986;2024-02-16T01:01:21;2.00;;;1.20;;
14817;SDS011;7500;57.698;11.986;2024-02-16T01:03:49;4.20;;;1.03;;
14817;SDS011;7500;57.698;11.986;2024-02-16T01:06:18;2.97;;;0.90;;
14817;SDS011;7500;57.698;11.986;2024-02-16T01:08:45;0.60;;;0.60;;
14817;SDS011;7500;57.698;11.986;2024-02-16T01:11:12;2.10;;;0.60;;
14817;SDS011;7500;57.698;11.986;2024-02-16T01:13:39;0.63;;;0.60;;
14817;SDS011;7500;57.698;11.986;2024-02-16T01:16:06;1.00;;;0.73;;
14817;SDS011;7500;57.698;11.986;2024-02-16T01:18:32;2.27;;;0.90;;
14817;SDS011;7500;57.698;11.986;2024-02-16T01:21:01;0.97;;;0.80;;
14817;SDS011;7500;57.698;11.986;2024-02-16T01:23:29;1.27;;;0.77;;
14817;SDS011;7500;57.698;11.986;2024-02-16T01:25:56;2.03;;;1.07;;
14817;SDS011;7500;57.698;11.986;2024-02-16T01:28:23;1.30;;;1.20;;
14817;SDS011;7500;57.698;11.986;2024-02-16T01:30:49;1.03;;;1.00;;
14817;SDS011;7500;57.698;11.986;2024-02-16T01:33:16;1.80;;;1.40;;
14817;SDS011;7500;57.698;11.986;2024-02-16T01:35:43;1.83;;;1.60;;
14817;SDS011;7500;57.698;11.986;2024-02-16T01:38:11;2.53;;;1.67;;
14817;SDS011;7500;57.698;11.986;2024-02-16T01:40:39;1.67;;;1.57;;
14817;SDS011;7500;57.698;11.986;2024-02-16T01:43:06;1.97;;;1.83;;
14817;SDS011;7500;57.698;11.986;2024-02-16T01:45:32;2.20;;;2.00;;
14817;SDS011;7500;57.698;11.986;2024-02-16T01:47:59;4.20;;;2.30;;
14817;SDS011;7500;57.698;11.986;2024-02-16T01:50:25;3.27;;;2.23;;
14817;SDS011;7500;57.698;11.986;2024-02-16T01:52:54;2.77;;;2.27;;
14817;SDS011;7500;57.698;11.986;2024-02-16T01:55:21;3.03;;;2.30;;
14817;SDS011;7500;57.698;11.986;2024-02-16T01:57:49;4.27;;;2.67;;
14817;SDS011;7500;57.698;11.986;2024-02-16T02:00:16;3.47;;;2.37;;
14817;SDS011;7500;57.698;11.986;2024-02-16T02:02:44;3.40;;;2.50;;
14817;SDS011;7500;57.698;11.986;2024-02-16T02:05:10;3.10;;;2.50;;
14817;SDS011;7500;57.698;11.986;2024-02-16T02:07:37;4.23;;;3.60;;
14817;SDS011;7500;57.698;11.986;2024-02-16T02:10:04;7.33;;;3.70;;
14817;SDS011;7500;57.698;11.986;2024-02-16T02:12:30;4.77;;;3.37;;
14817;SDS011;7500;57.698;11.986;2024-02-16T02:14:58;3.93;;;3.57;;
14817;SDS011;7500;57.698;11.986;2024-02-16T02:17:25;5.93;;;3.63;;
14817;SDS011;7500;57.698;11.986;2024-02-16T02:19:52;7.47;;;4.00;;
14817;SDS011;7500;57.698;11.986;2024-02-16T02:22:20;7.80;;;3.87;;
14817;SDS011;7500;57.698;11.986;2024-02-16T02:24:46;4.90;;;3.60;;
14817;SDS011;7500;57.698;11.986;2024-02-16T02:27:13;8.73;;;4.97;;
14817;SDS011;7500;57.698;11.986;2024-02-16T02:29:40;30.73;;;4.33;;
14817;SDS011;7500;57.698;11.986;2024-02-16T02:32:07;7.77;;;4.90;;
14817;SDS011;7500;57.698;11.986;2024-02-16T02:34:34;4.43;;;3.37;;
14817;SDS011;7500;57.698;11.986;2024-02-16T02:37:02;6.77;;;4.10;;
14817;SDS011;7500;57.698;11.986;2024-02-16T02:39:31;5.33;;;4.13;;
14817;SDS011;7500;57.698;11.986;2024-02-16T02:41:58;4.90;;;3.77;;
14817;SDS011;7500;57.698;11.986;2024-02-16T02:44:24;7.83;;;3.93;;
14817;SDS011;7500;57.698;11.986;2024-02-16T02:46:51;4.83;;;3.67;;
14817;SDS011;7500;57.698;11.986;2024-02-16T02:49:18;7.33;;;3.93;;
14817;SDS011;7500;57.698;11.986;2024-02-16T02:51:44;7.40;;;4.27;;
14817;SDS011;7500;57.698;11.986;2024-02-16T02:54:11;4.77;;;3.23;;
14817;SDS011;7500;57.698;11.986;2024-02-16T02:56:39;4.27;;;3.20;;
14817;SDS011;7500;57.698;11.986;2024-02-16T02:59:05;5.77;;;3.40;;
14817;SDS011;7500;57.698;11.986;2024-02-16T03:01:32;5.33;;;3.67;;
14817;SDS011;7500;57.698;11.986;2024-02-16T03:03:58;5.43;;;4.10;;
14817;SDS011;7500;57.698;11.986;2024-02-16T03:06:26;6.30;;;4.27;;
14817;SDS011;7500;57.698;11.986;2024-02-16T03:08:52;6.43;;;3.73;;
14817;SDS011;7500;57.698;11.986;2024-02-16T03:11:19;8.07;;;4.37;;
14817;SDS011;7500;57.698;11.986;2024-02-16T03:13:48;8.47;;;4.53;;
14817;SDS011;7500;57.698;11.986;2024-02-16T03:16:14;8.90;;;4.90;;
14817;SDS011;7500;57.698;11.986;2024-02-16T03:18:41;11.20;;;5.53;;
14817;SDS011;7500;57.698;11.986;2024-02-16T03:21:08;17.03;;;6.67;;
14817;SDS011;7500;57.698;11.986;2024-02-16T03:23:34;12.40;;;6.63;;
14817;SDS011;7500;57.698;11.986;2024-02-16T03:26:03;10.47;;;5.73;;
14817;SDS011;7500;57.698;11.986;2024-02-16T03:28:30;11.00;;;5.97;;
14817;SDS011;7500;57.698;11.986;2024-02-16T03:30:57;8.73;;;5.50;;
14817;SDS011;7500;57.698;11.986;2024-02-16T03:33:24;12.37;;;6.23;;
14817;SDS011;7500;57.698;11.986;2024-02-16T03:35:50;10.53;;;5.90;;
14817;SDS011;7500;57.698;11.986;2024-02-16T03:38:17;17.23;;;7.30;;
14817;SDS011;7500;57.698;11.986;2024-02-16T03:40:44;13.50;;;6.43;;
14817;SDS011;7500;57.698;11.986;2024-02-16T03:43:10;15.63;;;7.60;;
14817;SDS011;7500;57.698;11.986;2024-02-16T03:45:37;17.07;;;7.53;;
14817;SDS011;7500;57.698;11.986;2024-02-16T03:48:05;19.87;;;8.43;;
14817;SDS011;7500;57.698;11.986;2024-02-16T03:50:32;24.47;;;8.83;;
14817;SDS011;7500;57.698;11.986;2024-02-16T03:53:00;27.37;;;10.23;;
14817;SDS011;7500;57.698;11.986;2024-02-16T03:55:27;23.73;;;9.70;;
14817;SDS011;7500;57.698;11.986;2024-02-16T03:57:53;24.13;;;10.00;;
14817;SDS011;7500;57.698;11.986;2024-02-16T04:00:20;25.53;;;10.17;;
14817;SDS011;7500;57.698;11.986;2024-02-16T04:02:46;26.30;;;10.30;;
14817;SDS011;7500;57.698;11.986;2024-02-16T04:05:14;32.70;;;10.63;;
14817;SDS011;7500;57.698;11.986;2024-02-16T04:07:41;29.53;;;10.27;;
14817;SDS011;7500;57.698;11.986;2024-02-16T04:10:08;42.83;;;12.07;;
14817;SDS011;7500;57.698;11.986;2024-02-16T04:12:35;39.80;;;12.13;;
14817;SDS011;7500;57.698;11.986;2024-02-16T04:15:02;41.17;;;11.87;;
14817;SDS011;7500;57.698;11.986;2024-02-16T04:17:29;41.70;;;11.73;;
14817;SDS011;7500;57.698;11.986;2024-02-16T04:19:56;43.67;;;11.80;;
14817;SDS011;7500;57.698;11.986;2024-02-16T04:22:23;35.83;;;11.37;;
14817;SDS011;7500;57.698;11.986;2024-02-16T04:24:50;45.07;;;11.97;;
14817;SDS011;7500;57.698;11.986;2024-02-16T04:27:16;45.90;;;12.73;;
14817;SDS011;7500;57.698;11.986;2024-02-16T04:29:43;48.27;;;12.10;;
14817;SDS011;7500;57.698;11.986;2024-02-16T04:32:10;49.73;;;11.90;;
14817;SDS011;7500;57.698;11.986;2024-02-16T04:34:36;70.93;;;13.37;;
14817;SDS011;7500;57.698;11.986;2024-02-16T04:37:03;82.57;;;14.07;;
14817;SDS011;7500;57.698;11.986;2024-02-16T04:39:31;96.33;;;14.60;;
14817;SDS011;7500;57.698;11.986;2024-02-16T04:41:57;75.87;;;13.93;;
14817;SDS011;7500;57.698;11.986;2024-02-16T04:44:24;95.33;;;14.50;;
14817;SDS011;7500;57.698;11.986;2024-02-16T04:46:51;99.07;;;14.80;;
14817;SDS011;7500;57.698;11.986;2024-02-16T04:49:18;89.63;;;14.93;;
14817;SDS011;7500;57.698;11.986;2024-02-16T04:51:45;108.00;;;15.27;;
14817;SDS011;7500;57.698;11.986;2024-02-16T04:54:12;90.57;;;14.63;;
14817;SDS011;7500;57.698;11.986;2024-02-16T04:56:40;106.27;;;15.90;;
14817;SDS011;7500;57.698;11.986;2024-02-16T04:59:07;85.17;;;13.20;;
14817;SDS011;7500;57.698;11.986;2024-02-16T05:01:34;88.37;;;14.30;;
14817;SDS011;7500;57.698;11.986;2024-02-16T05:04:00;120.17;;;16.17;;
14817;SDS011;7500;57.698;11.986;2024-02-16T05:06:27;82.43;;;15.00;;
14817;SDS011;7500;57.698;11.986;2024-02-16T05:08:56;79.20;;;15.00;;
14817;SDS011;7500;57.698;11.986;2024-02-16T05:11:22;108.30;;;16.53;;
14817;SDS011;7500;57.698;11.986;2024-02-16T05:13:51;75.93;;;13.60;;
14817;SDS011;7500;57.698;11.986;2024-02-16T05:16:17;123.27;;;16.37;;
14817;SDS011;7500;57.698;11.986;2024-02-16T05:18:44;99.97;;;16.47;;
14817;SDS011;7500;57.698;11.986;2024-02-16T05:21:10;98.13;;;15.10;;
14817;SDS011;7500;57.698;11.986;2024-02-16T05:23:37;125.47;;;15.63;;
14817;SDS011;7500;57.698;11.986;2024-02-16T05:26:03;97.43;;;14.73;;
14817;SDS011;7500;57.698;11.986;2024-02-16T05:28:30;64.20;;;12.83;;
14817;SDS011;7500;57.698;11.986;2024-02-16T05:30:58;82.17;;;14.20;;
14817;SDS011;7500;57.698;11.986;2024-02-16T05:33:29;95.03;;;13.90;;
14817;SDS011;7500;57.698;11.986;2024-02-16T05:35:56;104.17;;;14.87;;
14817;SDS011;7500;57.698;11.986;2024-02-16T05:38:24;83.90;;;14.00;;
14817;SDS011;7500;57.698;11.986;2024-02-16T05:41:00;62.50;;;13.13;;
14817;SDS011;7500;57.698;11.986;2024-02-16T05:43:27;81.40;;;14.17;;
14817;SDS011;7500;57.698;11.986;2024-02-16T05:45:53;43.67;;;12.20;;
14817;SDS011;7500;57.698;11.986;2024-02-16T05:48:21;53.10;;;12.07;;
14817;SDS011;7500;57.698;11.986;2024-02-16T05:50:49;62.50;;;14.57;;
14817;SDS011;7500;57.698;11.986;2024-02-16T05:53:16;54.13;;;14.00;;
14817;SDS011;7500;57.698;11.986;2024-02-16T05:55:44;68.60;;;14.00;;
14817;SDS011;7500;57.698;11.986;2024-02-16T05:58:10;66.32;;;18.73;;
14817;SDS011;7500;57.698;11.986;2024-02-16T06:00:37;34.37;;;12.40;;
14817;SDS011;7500;57.698;11.986;2024-02-16T06:03:04;40.23;;;12.37;;
14817;SDS011;7500;57.698;11.986;2024-02-16T06:05:32;32.87;;;11.17;;
14817;SDS011;7500;57.698;11.986;2024-02-16T06:08:00;27.43;;;11.03;;
14817;SDS011;7500;57.698;11.986;2024-02-16T06:10:27;24.33;;;9.83;;
14817;SDS011;7500;57.698;11.986;2024-02-16T06:12:53;29.90;;;10.50;;
14817;SDS011;7500;57.698;11.986;2024-02-16T06:15:20;32.70;;;10.67;;
14817;SDS011;7500;57.698;11.986;2024-02-16T06:17:47;22.10;;;9.90;;
14817;SDS011;7500;57.698;11.986;2024-02-16T06:20:14;24.57;;;9.70;;
14817;SDS011;7500;57.698;11.986;2024-02-16T06:22:42;25.33;;;9.70;;
14817;SDS011;7500;57.698;11.986;2024-02-16T06:25:09;17.50;;;8.53;;
14817;SDS011;7500;57.698;11.986;2024-02-16T06:27:36;19.57;;;8.13;;
14817;SDS011;7500;57.698;11.986;2024-02-16T06:30:02;27.52;;;10.85;;
14817;SDS011;7500;57.698;11.986;2024-02-16T06:32:30;68.30;;;9.97;;
14817;SDS011;7500;57.698;11.986;2024-02-16T06:34:56;17.33;;;8.00;;
14817;SDS011;7500;57.698;11.986;2024-02-16T06:37:23;40.87;;;9.37;;
14817;SDS011;7500;57.698;11.986;2024-02-16T06:39:51;24.23;;;8.07;;
14817;SDS011;7500;57.698;11.986;2024-02-16T06:42:17;29.83;;;7.83;;
14817;SDS011;7500;57.698;11.986;2024-02-16T06:44:44;21.30;;;8.50;;
14817;SDS011;7500;57.698;11.986;2024-02-16T06:47:11;23.77;;;8.63;;
14817;SDS011;7500;57.698;11.986;2024-02-16T06:49:37;29.17;;;7.83;;
14817;SDS011;7500;57.698;11.986;2024-02-16T06:52:04;21.87;;;9.07;;
14817;SDS011;7500;57.698;11.986;2024-02-16T06:54:31;10.17;;;6.20;;
14817;SDS011;7500;57.698;11.986;2024-02-16T06:56:59;19.93;;;8.13;;
14817;SDS011;7500;57.698;11.986;2024-02-16T06:59:26;12.77;;;7.00;;
14817;SDS011;7500;57.698;11.986;2024-02-16T07:01:52;17.50;;;7.40;;
14817;SDS011;7500;57.698;11.986;2024-02-16T07:04:19;9.40;;;6.23;;
14817;SDS011;7500;57.698;11.986;2024-02-16T07:06:46;16.17;;;6.43;;
14817;SDS011;7500;57.698;11.986;2024-02-16T07:09:12;12.60;;;6.70;;
14817;SDS011;7500;57.698;11.986;2024-02-16T07:11:40;17.57;;;7.87;;
14817;SDS011;7500;57.698;11.986;2024-02-16T07:14:09;16.97;;;8.17;;
14817;SDS011;7500;57.698;11.986;2024-02-16T07:16:35;16.30;;;8.43;;
14817;SDS011;7500;57.698;11.986;2024-02-16T07:19:02;16.93;;;8.53;;
14817;SDS011;7500;57.698;11.986;2024-02-16T07:21:28;22.00;;;10.27;;
14817;SDS011;7500;57.698;11.986;2024-02-16T07:23:55;31.93;;;11.53;;
14817;SDS011;7500;57.698;11.986;2024-02-16T07:26:22;23.73;;;11.70;;
14817;SDS011;7500;57.698;11.986;2024-02-16T07:28:49;30.23;;;14.73;;
14817;SDS011;7500;57.698;11.986;2024-02-16T07:31:17;28.37;;;13.27;;
14817;SDS011;7500;57.698;11.986;2024-02-16T07:33:43;35.33;;;14.87;;
14817;SDS011;7500;57.698;11.986;2024-02-16T07:36:16;38.27;;;14.87;;
14817;SDS011;7500;57.698;11.986;2024-02-16T07:38:44;31.90;;;14.73;;
14817;SDS011;7500;57.698;11.986;2024-02-16T07:41:11;30.37;;;14.33;;
14817;SDS011;7500;57.698;11.986;2024-02-16T07:43:38;32.30;;;14.90;;
14817;SDS011;7500;57.698;11.986;2024-02-16T07:46:04;33.23;;;14.83;;
14817;SDS011;7500;57.698;11.986;2024-02-16T07:48:32;31.77;;;14.87;;
14817;SDS011;7500;57.698;11.986;2024-02-16T07:50:59;44.57;;;15.50;;
14817;SDS011;7500;57.698;11.986;2024-02-16T07:53:27;37.23;;;14.80;;
14817;SDS011;7500;57.698;11.986;2024-02-16T07:55:54;34.23;;;14.17;;
14817;SDS011;7500;57.698;11.986;2024-02-16T07:58:21;32.80;;;13.80;;
14817;SDS011;7500;57.698;11.986;2024-02-16T08:00:47;26.30;;;13.37;;
14817;SDS011;7500;57.698;11.986;2024-02-16T08:03:14;26.97;;;13.17;;
14817;SDS011;7500;57.698;11.986;2024-02-16T08:05:42;31.93;;;13.60;;
14817;SDS011;7500;57.698;11.986;2024-02-16T08:08:09;27.33;;;14.03;;
14817;SDS011;7500;57.698;11.986;2024-02-16T08:10:35;27.80;;;13.33;;
14817;SDS011;7500;57.698;11.986;2024-02-16T08:13:02;25.33;;;13.87;;
14817;SDS011;7500;57.698;11.986;2024-02-16T08:15:35;35.27;;;14.87;;
14817;SDS011;7500;57.698;11.986;2024-02-16T08:18:01;29.80;;;14.37;;
14817;SDS011;7500;57.698;11.986;2024-02-16T08:20:28;28.60;;;14.00;;
14817;SDS011;7500;57.698;11.986;2024-02-16T08:22:56;25.13;;;13.13;;
14817;SDS011;7500;57.698;11.986;2024-02-16T08:25:23;23.60;;;12.70;;
14817;SDS011;7500;57.698;11.986;2024-02-16T08:27:49;26.17;;;14.17;;
14817;SDS011;7500;57.698;11.986;2024-02-16T08:30:16;27.23;;;13.27;;
14817;SDS011;7500;57.698;11.986;2024-02-16T08:32:43;22.23;;;13.13;;
14817;SDS011;7500;57.698;11.986;2024-02-16T08:35:09;38.87;;;15.83;;
14817;SDS011;7500;57.698;11.986;2024-02-16T08:37:36;23.97;;;12.90;;
14817;SDS011;7500;57.698;11.986;2024-02-16T08:40:05;25.40;;;15.03;;
14817;SDS011;7500;57.698;11.986;2024-02-16T08:42:31;31.17;;;15.77;;
14817;SDS011;7500;57.698;11.986;2024-02-16T08:44:58;29.50;;;15.03;;
14817;SDS011;7500;57.698;11.986;2024-02-16T08:47:25;26.03;;;14.90;;
14817;SDS011;7500;57.698;11.986;2024-02-16T08:49:52;26.23;;;13.83;;
14817;SDS011;7500;57.698;11.986;2024-02-16T08:52:18;40.77;;;16.60;;
14817;SDS011;7500;57.698;11.986;2024-02-16T08:54:45;24.47;;;13.87;;
14817;SDS011;7500;57.698;11.986;2024-02-16T08:57:13;34.00;;;15.93;;
14817;SDS011;7500;57.698;11.986;2024-02-16T08:59:39;23.23;;;13.50;;
14817;SDS011;7500;57.698;11.986;2024-02-16T09:02:06;28.00;;;14.70;;
14817;SDS011;7500;57.698;11.986;2024-02-16T09:04:33;42.47;;;18.17;;
14817;SDS011;7500;57.698;11.986;2024-02-16T09:06:59;33.80;;;15.73;;
14817;SDS011;7500;57.698;11.986;2024-02-16T09:09:26;22.43;;;14.23;;
14817;SDS011;7500;57.698;11.986;2024-02-16T09:11:53;30.50;;;15.53;;
14817;SDS011;7500;57.698;11.986;2024-02-16T09:14:21;34.30;;;17.53;;
14817;SDS011;7500;57.698;11.986;2024-02-16T09:16:48;25.70;;;14.30;;
14817;SDS011;7500;57.698;11.986;2024-02-16T09:19:16;30.37;;;15.97;;
14817;SDS011;7500;57.698;11.986;2024-02-16T09:21:43;33.13;;;17.20;;
14817;SDS011;7500;57.698;11.986;2024-02-16T09:24:09;41.23;;;20.17;;
14817;SDS011;7500;57.698;11.986;2024-02-16T09:26:42;34.10;;;17.40;;
14817;SDS011;7500;57.698;11.986;2024-02-16T09:29:11;39.30;;;18.03;;
14817;SDS011;7500;57.698;11.986;2024-02-16T09:31:39;25.53;;;15.47;;
14817;SDS011;7500;57.698;11.986;2024-02-16T09:34:05;28.77;;;16.57;;
14817;SDS011;7500;57.698;11.986;2024-02-16T09:36:32;36.10;;;19.40;;
14817;SDS011;7500;57.698;11.986;2024-02-16T09:39:00;39.00;;;18.83;;
14817;SDS011;7500;57.698;11.986;2024-02-16T09:41:27;38.17;;;18.60;;
14817;SDS011;7500;57.698;11.986;2024-02-16T09:43:54;34.70;;;18.60;;
14817;SDS011;7500;57.698;11.986;2024-02-16T09:46:21;41.07;;;19.57;;
14817;SDS011;7500;57.698;11.986;2024-02-16T09:48:49;33.10;;;18.00;;
14817;SDS011;7500;57.698;11.986;2024-02-16T09:51:17;29.70;;;17.63;;
14817;SDS011;7500;57.698;11.986;2024-02-16T09:53:45;41.43;;;21.07;;
14817;SDS011;7500;57.698;11.986;2024-02-16T09:56:17;41.53;;;20.77;;
14817;SDS011;7500;57.698;11.986;2024-02-16T09:58:43;44.53;;;21.37;;
14817;SDS011;7500;57.698;11.986;2024-02-16T10:01:16;40.97;;;20.53;;
14817;SDS011;7500;57.698;11.986;2024-02-16T10:03:43;44.83;;;21.93;;
14817;SDS011;7500;57.698;11.986;2024-02-16T10:06:11;40.40;;;20.83;;
14817;SDS011;7500;57.698;11.986;2024-02-16T10:08:46;39.90;;;20.47;;
14817;SDS011;7500;57.698;11.986;2024-02-16T10:11:14;40.90;;;21.23;;
14817;SDS011;7500;57.698;11.986;2024-02-16T10:13:41;41.27;;;21.13;;
14817;SDS011;7500;57.698;11.986;2024-02-16T10:16:08;42.07;;;21.43;;
14817;SDS011;7500;57.698;11.986;2024-02-16T10:18:36;54.97;;;23.83;;
14817;SDS011;7500;57.698;11.986;2024-02-16T10:21:03;48.63;;;23.00;;
14817;SDS011;7500;57.698;11.986;2024-02-16T10:23:31;56.03;;;24.70;;
14817;SDS011;7500;57.698;11.986;2024-02-16T10:25:58;41.90;;;20.77;;
14817;SDS011;7500;57.698;11.986;2024-02-16T10:28:27;41.17;;;21.40;;
14817;SDS011;7500;57.698;11.986;2024-02-16T10:30:56;51.20;;;23.50;;
14817;SDS011;7500;57.698;11.986;2024-02-16T10:33:23;47.40;;;22.87;;
14817;SDS011;7500;57.698;11.986;2024-02-16T10:35:50;46.70;;;23.83;;
14817;SDS011;7500;57.698;11.986;2024-02-16T10:38:17;45.67;;;22.93;;
14817;SDS011;7500;57.698;11.986;2024-02-16T10:40:47;53.57;;;24.67;;
14817;SDS011;7500;57.698;11.986;2024-02-16T10:43:14;37.30;;;21.53;;
14817;SDS011;7500;57.698;11.986;2024-02-16T10:45:41;44.77;;;21.93;;
14817;SDS011;7500;57.698;11.986;2024-02-16T10:48:10;44.10;;;21.47;;
14817;SDS011;7500;57.698;11.986;2024-02-16T10:50:37;39.20;;;22.23;;
14817;SDS011;7500;57.698;11.986;2024-02-16T10:53:04;44.93;;;23.43;;
14817;SDS011;7500;57.698;11.986;2024-02-16T10:55:33;44.50;;;22.90;;
14817;SDS011;7500;57.698;11.986;2024-02-16T10:58:01;46.17;;;23.20;;
14817;SDS011;7500;57.698;11.986;2024-02-16T11:00:28;45.97;;;22.63;;
14817;SDS011;7500;57.698;11.986;2024-02-16T11:02:55;48.10;;;23.80;;
14817;SDS011;7500;57.698;11.986;2024-02-16T11:05:33;38.00;;;21.37;;
14817;SDS011;7500;57.698;11.986;2024-02-16T11:08:00;41.87;;;22.60;;
14817;SDS011;7500;57.698;11.986;2024-02-16T11:10:27;45.93;;;23.33;;
14817;SDS011;7500;57.698;11.986;2024-02-16T11:12:53;38.43;;;21.77;;
14817;SDS011;7500;57.698;11.986;2024-02-16T11:15:28;35.60;;;22.30;;
14817;SDS011;7500;57.698;11.986;2024-02-16T11:17:55;37.90;;;20.53;;
14817;SDS011;7500;57.698;11.986;2024-02-16T11:20:23;38.17;;;21.43;;
14817;SDS011;7500;57.698;11.986;2024-02-16T11:22:51;48.33;;;23.40;;
14817;SDS011;7500;57.698;11.986;2024-02-16T11:25:17;37.53;;;21.97;;
14817;SDS011;7500;57.698;11.986;2024-02-16T11:27:45;34.40;;;20.73;;
14817;SDS011;7500;57.698;11.986;2024-02-16T11:30:12;38.17;;;21.97;;
14817;SDS011;7500;57.698;11.986;2024-02-16T11:32:43;37.60;;;21.13;;
14817;SDS011;7500;57.698;11.986;2024-02-16T11:35:09;45.90;;;23.27;;
14817;SDS011;7500;57.698;11.986;2024-02-16T11:37:36;36.07;;;21.77;;
14817;SDS011;7500;57.698;11.986;2024-02-16T11:40:04;32.77;;;20.93;;
14817;SDS011;7500;57.698;11.986;2024-02-16T11:42:33;30.47;;;20.43;;
14817;SDS011;7500;57.698;11.986;2024-02-16T11:45:00;33.53;;;20.73;;
14817;SDS011;7500;57.698;11.986;2024-02-16T11:47:27;32.50;;;20.03;;
14817;SDS011;7500;57.698;11.986;2024-02-16T11:50:02;29.63;;;18.87;;
14817;SDS011;7500;57.698;11.986;2024-02-16T11:52:28;34.50;;;20.23;;
14817;SDS011;7500;57.698;11.986;2024-02-16T11:54:55;37.43;;;20.63;;
14817;SDS011;7500;57.698;11.986;2024-02-16T11:57:22;46.60;;;22.13;;
14817;SDS011;7500;57.698;11.986;2024-02-16T11:59:49;46.63;;;22.97;;
14817;SDS011;7500;57.698;11.986;2024-02-16T12:02:17;36.23;;;22.07;;
14817;SDS011;7500;57.698;11.986;2024-02-16T12:04:46;40.87;;;21.57;;
14817;SDS011;7500;57.698;11.986;2024-02-16T12:07:14;31.47;;;19.93;;
14817;SDS011;7500;57.698;11.986;2024-02-16T12:09:40;41.63;;;21.97;;
14817;SDS011;7500;57.698;11.986;2024-02-16T12:12:07;43.40;;;22.67;;
14817;SDS011;7500;57.698;11.986;2024-02-16T12:14:34;31.90;;;20.40;;
14817;SDS011;7500;57.698;11.986;2024-02-16T12:17:03;32.63;;;19.93;;
14817;SDS011;7500;57.698;11.986;2024-02-16T12:19:30;37.73;;;20.30;;
14817;SDS011;7500;57.698;11.986;2024-02-16T12:21:56;44.37;;;22.77;;
14817;SDS011;7500;57.698;11.986;2024-02-16T12:24:25;40.03;;;21.37;;
14817;SDS011;7500;57.698;11.986;2024-02-16T12:26:51;34.47;;;21.20;;
14817;SDS011;7500;57.698;11.986;2024-02-16T12:29:18;41.47;;;21.60;;
14817;SDS011;7500;57.698;11.986;2024-02-16T12:31:45;32.40;;;20.67;;
14817;SDS011;7500;57.698;11.986;2024-02-16T12:34:13;33.73;;;20.73;;
14817;SDS011;7500;57.698;11.986;2024-02-16T12:36:40;38.00;;;21.33;;
14817;SDS011;7500;57.698;11.986;2024-02-16T12:39:07;31.23;;;20.50;;
14817;SDS011;7500;57.698;11.986;2024-02-16T12:41:35;48.20;;;22.67;;
14817;SDS011;7500;57.698;11.986;2024-02-16T12:44:03;37.93;;;21.40;;
14817;SDS011;7500;57.698;11.986;2024-02-16T12:46:30;36.20;;;20.97;;
14817;SDS011;7500;57.698;11.986;2024-02-16T12:48:56;34.70;;;19.47;;
14817;SDS011;7500;57.698;11.986;2024-02-16T12:51:23;36.87;;;19.90;;
14817;SDS011;7500;57.698;11.986;2024-02-16T12:53:49;34.03;;;20.47;;
14817;SDS011;7500;57.698;11.986;2024-02-16T12:56:16;29.83;;;18.37;;
14817;SDS011;7500;57.698;11.986;2024-02-16T12:58:44;28.33;;;18.90;;
14817;SDS011;7500;57.698;11.986;2024-02-16T13:01:11;31.87;;;19.03;;
14817;SDS011;7500;57.698;11.986;2024-02-16T13:03:38;51.37;;;22.47;;
14817;SDS011;7500;57.698;11.986;2024-02-16T13:06:05;41.10;;;20.60;;
14817;SDS011;7500;57.698;11.986;2024-02-16T13:08:32;29.60;;;18.33;;
14817;SDS011;7500;57.698;11.986;2024-02-16T13:10:58;35.27;;;19.13;;
14817;SDS011;7500;57.698;11.986;2024-02-16T13:13:25;39.60;;;20.53;;
14817;SDS011;7500;57.698;11.986;2024-02-16T13:15:53;37.07;;;19.53;;
14817;SDS011;7500;57.698;11.986;2024-02-16T13:18:21;27.00;;;16.87;;
14817;SDS011;7500;57.698;11.986;2024-02-16T13:20:48;36.23;;;18.47;;
14817;SDS011;7500;57.698;11.986;2024-02-16T13:23:14;36.47;;;17.33;;
14817;SDS011;7500;57.698;11.986;2024-02-16T13:25:41;23.67;;;13.50;;
14817;SDS011;7500;57.698;11.986;2024-02-16T13:28:07;38.37;;;17.37;;
14817;SDS011;7500;57.698;11.986;2024-02-16T13:30:34;31.27;;;15.77;;
14817;SDS011;7500;57.698;11.986;2024-02-16T13:33:03;29.40;;;15.87;;
14817;SDS011;7500;57.698;11.986;2024-02-16T13:35:29;17.87;;;12.37;;
14817;SDS011;7500;57.698;11.986;2024-02-16T13:37:56;23.90;;;13.10;;
14817;SDS011;7500;57.698;11.986;2024-02-16T13:40:23;19.77;;;12.30;;
14817;SDS011;7500;57.698;11.986;2024-02-16T13:42:49;37.50;;;14.13;;
14817;SDS011;7500;57.698;11.986;2024-02-16T13:45:16;25.77;;;13.03;;
14817;SDS011;7500;57.698;11.986;2024-02-16T13:47:42;16.63;;;11.10;;
14817;SDS011;7500;57.698;11.986;2024-02-16T13:50:10;17.73;;;11.03;;
14817;SDS011;7500;57.698;11.986;2024-02-16T13:52:37;18.57;;;11.33;;
14817;SDS011;7500;57.698;11.986;2024-02-16T13:55:04;25.57;;;10.13;;
14817;SDS011;7500;57.698;11.986;2024-02-16T13:57:31;16.03;;;10.80;;
14817;SDS011;7500;57.698;11.986;2024-02-16T13:59:58;20.53;;;11.70;;
14817;SDS011;7500;57.698;11.986;2024-02-16T14:02:24;17.03;;;11.00;;
14817;SDS011;7500;57.698;11.986;2024-02-16T14:04:51;17.67;;;11.10;;
14817;SDS011;7500;57.698;11.986;2024-02-16T14:07:19;19.23;;;12.47;;
14817;SDS011;7500;57.698;11.986;2024-02-16T14:09:45;23.37;;;12.57;;
14817;SDS011;7500;57.698;11.986;2024-02-16T14:12:12;23.20;;;13.63;;
14817;SDS011;7500;57.698;11.986;2024-02-16T14:14:38;27.00;;;15.50;;
14817;SDS011;7500;57.698;11.986;2024-02-16T14:17:05;21.03;;;12.87;;
14817;SDS011;7500;57.698;11.986;2024-02-16T14:19:32;22.70;;;14.30;;
14817;SDS011;7500;57.698;11.986;2024-02-16T14:21:59;25.83;;;16.63;;
14817;SDS011;7500;57.698;11.986;2024-02-16T14:24:27;24.43;;;15.13;;
14817;SDS011;7500;57.698;11.986;2024-02-16T14:26:53;26.67;;;15.20;;